This is the latest recevied weather packets stored in our database for station/object KC9MWQ-13. If no packets are shown the sender has not sent any weather packets the latest 10 day(s).
| Time | Temp. | Humidity | Pressure | Rain* | Wind** | Luminosity | Snow |
|---|---|---|---|---|---|---|---|
| 1777665972 | 10.56° C | 72% | 1016.9 hPa | 0 mm | - | 189 W/m² | - |
| 1777665670 | 10° C | 69% | 1017 hPa | 0 mm | - | 181 W/m² | - |
| 1777665367 | 10° C | 68% | 1016.8 hPa | 0 mm | - | 231 W/m² | - |
| 1777665062 | 10° C | 69% | 1016.8 hPa | 0 mm | - | 237 W/m² | - |
| 1777664758 | 10° C | 70% | 1016.9 hPa | 0 mm | - | 186 W/m² | - |
| 1777664454 | 10° C | 71% | 1016.9 hPa | 0 mm | - | 168 W/m² | - |
| 1777664151 | 10° C | 73% | 1017.1 hPa | 0 mm | - | 159 W/m² | - |
| 1777663850 | 10° C | 71% | 1016.7 hPa | 0 mm | - | 124 W/m² | - |
| 1777663546 | 10° C | 72% | 1016.7 hPa | 0 mm | - | 128 W/m² | - |
| 1777663244 | 10° C | 72% | 1016.7 hPa | 0 mm | - | 140 W/m² | - |
| 1777662941 | 10° C | 71% | 1016.7 hPa | 0 mm | - | 125 W/m² | - |
| 1777662638 | 10° C | 69% | 1016.8 hPa | 0 mm | - | 113 W/m² | - |
| 1777662334 | 10.56° C | 69% | 1016.5 hPa | 0 mm | - | 131 W/m² | - |
| 1777662029 | 10.56° C | 70% | 1016.4 hPa | 0 mm | - | 160 W/m² | - |
| 1777661726 | 10.56° C | 71% | 1016.5 hPa | 0 mm | - | 297 W/m² | - |
| 1777661422 | 10.56° C | 70% | 1016.6 hPa | 0 mm | - | 329 W/m² | - |
| 1777661118 | 10.56° C | 67% | 1016.7 hPa | 0 mm | - | 307 W/m² | - |
| 1777660818 | 11.11° C | 67% | 1016.5 hPa | 0 mm | - | 278 W/m² | - |
| 1777660515 | 10.56° C | 72% | 1016.5 hPa | 0 mm | - | 386 W/m² | - |
| 1777660211 | 10.56° C | 71% | 1016.6 hPa | 0 mm | - | 225 W/m² | - |
| 1777659909 | 10° C | 70% | 1016.7 hPa | 0 mm | - | 179 W/m² | - |
| 1777659605 | 10.56° C | 68% | 1016.4 hPa | 0 mm | - | 235 W/m² | - |
| 1777659302 | 11.67° C | 71% | 1016.2 hPa | 0 mm | - | 723 W/m² | - |
| 1777658999 | 11.11° C | 70% | 1016.5 hPa | 0 mm | - | 878 W/m² | - |
| 1777658697 | 10° C | 73% | 1016.5 hPa | 0 mm | - | 842 W/m² | - |
* Rain latest hour (hover to see other rain measurements)
** Current wind speed in m/s (hover to see current wind gust speed)